createdAt,value
2023-03-02T00:03:01.187Z,6.3
2023-03-02T00:08:02.090Z,6.2
2023-03-02T00:13:00.920Z,6.3
2023-03-02T00:18:00.845Z,6.3
2023-03-02T00:23:00.701Z,6.2
2023-03-02T00:28:00.620Z,6.0
2023-03-02T00:38:00.398Z,6.1
2023-03-02T00:43:00.282Z,5.9
2023-03-02T00:48:00.217Z,5.8
2023-03-02T00:53:00.117Z,5.8
2023-03-02T00:58:00.005Z,5.6
2023-03-02T01:02:59.991Z,5.6
2023-03-02T01:07:59.826Z,5.6
2023-03-02T01:12:59.675Z,5.4
2023-03-02T01:18:04.118Z,5.3
2023-03-02T01:22:59.487Z,5.2
2023-03-02T01:27:59.422Z,5.1
2023-03-02T01:33:00.675Z,5.0
2023-03-02T01:37:59.080Z,5.1
2023-03-02T01:42:58.955Z,5.1
2023-03-02T01:47:58.855Z,5.1
2023-03-02T01:52:58.761Z,5.1
2023-03-02T01:57:58.751Z,5.1
2023-03-02T02:02:58.523Z,4.8
2023-03-02T02:07:58.415Z,4.7
2023-03-02T02:12:58.270Z,4.6
2023-03-02T02:17:58.169Z,4.4
2023-03-02T02:27:57.854Z,4.1
2023-03-02T02:32:57.690Z,4.2
2023-03-02T02:37:57.601Z,3.9
2023-03-02T02:42:57.373Z,4.0
2023-03-02T02:47:57.205Z,3.8
2023-03-02T02:52:57.016Z,3.6
2023-03-02T02:57:56.856Z,3.4
2023-03-02T03:02:56.663Z,3.2
2023-03-02T03:07:56.477Z,3.2
2023-03-02T03:12:56.264Z,3.2
2023-03-02T03:17:56.150Z,3.1
2023-03-02T03:22:55.879Z,3.2
2023-03-02T03:27:55.832Z,3.0
2023-03-02T03:32:55.490Z,3.1
2023-03-02T03:37:55.325Z,3.1
2023-03-02T03:42:55.190Z,3.0
2023-03-02T03:47:54.924Z,3.0
2023-03-02T03:52:54.703Z,3.1
2023-03-02T03:57:58.532Z,2.9
2023-03-02T04:02:54.451Z,2.9
2023-03-02T04:07:54.189Z,2.9
2023-03-02T04:12:53.984Z,2.9
2023-03-02T04:17:53.773Z,2.8
2023-03-02T04:22:53.556Z,2.8
2023-03-02T04:27:53.361Z,2.8
2023-03-02T04:32:53.155Z,2.8
2023-03-02T04:37:53.028Z,2.7
2023-03-02T04:42:52.796Z,2.7
2023-03-02T04:47:52.666Z,2.6
2023-03-02T04:52:52.396Z,2.6
2023-03-02T04:57:52.252Z,2.6
2023-03-02T05:02:52.039Z,2.6
2023-03-02T05:07:51.889Z,2.5
2023-03-02T05:12:51.708Z,2.4
2023-03-02T05:17:51.560Z,2.4
2023-03-02T05:22:51.377Z,2.4
2023-03-02T05:27:51.169Z,2.4
2023-03-02T05:32:51.027Z,2.2
2023-03-02T05:37:50.828Z,2.2
2023-03-02T05:42:50.630Z,2.2
2023-03-02T05:47:50.429Z,2.1
2023-03-02T05:52:50.299Z,2.0
2023-03-02T05:57:50.123Z,2.0
2023-03-02T06:02:49.884Z,1.9
2023-03-02T06:07:49.670Z,1.9
2023-03-02T06:12:49.458Z,1.8
2023-03-02T06:17:49.272Z,1.8
2023-03-02T06:22:49.026Z,1.7
2023-03-02T06:27:48.859Z,1.8
2023-03-02T06:32:48.736Z,1.8
2023-03-02T06:37:48.445Z,1.8
2023-03-02T06:42:48.243Z,1.8
2023-03-02T06:47:48.076Z,1.8
2023-03-02T06:52:47.851Z,1.8
2023-03-02T06:57:47.688Z,1.8
2023-03-02T07:02:47.464Z,1.8
2023-03-02T07:07:47.256Z,1.6
2023-03-02T07:12:47.018Z,1.6
2023-03-02T07:17:46.863Z,1.6
2023-03-02T07:22:46.595Z,1.5
2023-03-02T07:27:46.444Z,1.5
2023-03-02T07:32:46.162Z,1.6
2023-03-02T07:37:45.971Z,1.8
2023-03-02T07:42:45.695Z,1.9
2023-03-02T07:47:45.504Z,1.9
2023-03-02T07:52:45.316Z,2.1
2023-03-02T08:02:44.953Z,2.5
2023-03-02T08:07:44.772Z,2.7
2023-03-02T08:12:44.565Z,2.9
2023-03-02T08:17:44.409Z,3.1
2023-03-02T08:22:44.207Z,3.2
2023-03-02T08:27:44.030Z,3.4
2023-03-02T08:32:43.891Z,3.4
2023-03-02T08:37:43.680Z,3.6
2023-03-02T08:42:43.499Z,3.6
2023-03-02T08:47:43.334Z,3.7
2023-03-02T08:52:43.160Z,3.9
2023-03-02T08:57:43.080Z,4.0
2023-03-02T09:07:42.734Z,4.2
2023-03-02T09:12:42.618Z,4.4
2023-03-02T09:17:42.472Z,4.5
2023-03-02T09:22:42.295Z,4.8
2023-03-02T09:27:42.189Z,4.8
2023-03-02T09:32:44.128Z,5.2
2023-03-02T09:37:44.290Z,5.3
2023-03-02T09:42:44.105Z,5.5
2023-03-02T09:47:41.782Z,5.8
2023-03-02T09:52:41.665Z,5.9
2023-03-02T09:57:41.618Z,6.0
2023-03-02T10:02:43.564Z,6.2
2023-03-02T10:07:41.466Z,6.2
2023-03-02T10:12:41.364Z,6.4
2023-03-02T10:17:41.305Z,6.5
2023-03-02T10:22:41.227Z,6.6
2023-03-02T10:27:41.215Z,6.8
2023-03-02T10:32:41.246Z,6.7
2023-03-02T10:37:41.197Z,6.9
2023-03-02T10:42:40.984Z,7.1
2023-03-02T10:47:43.451Z,7.8
2023-03-02T10:52:44.201Z,8.1
2023-03-02T10:57:40.884Z,8.5
2023-03-02T11:02:40.985Z,8.3
2023-03-02T11:07:40.780Z,8.2
2023-03-02T11:12:40.783Z,8.1
2023-03-02T11:17:40.772Z,8.2
2023-03-02T11:22:40.794Z,8.4
2023-03-02T11:27:40.722Z,8.6
2023-03-02T11:32:40.761Z,8.2
2023-03-02T11:37:40.682Z,8.1
2023-03-02T11:42:40.666Z,7.9
2023-03-02T11:47:40.637Z,8.4
2023-03-02T11:52:40.555Z,8.4
2023-03-02T11:57:40.530Z,8.9
2023-03-02T12:02:40.513Z,8.8
2023-03-02T12:07:40.474Z,8.5
2023-03-02T12:12:40.481Z,8.5
2023-03-02T12:17:40.450Z,8.6
2023-03-02T12:22:40.317Z,8.8
2023-03-02T12:27:40.453Z,8.7
2023-03-02T12:32:40.342Z,8.7
2023-03-02T12:37:40.232Z,8.7
2023-03-02T12:42:40.181Z,8.5
2023-03-02T12:47:40.480Z,8.6
2023-03-02T12:52:40.233Z,8.9
2023-03-02T12:57:40.125Z,8.8
2023-03-02T13:02:40.139Z,8.9
2023-03-02T13:07:40.055Z,8.9
2023-03-02T13:12:40.039Z,9.1
2023-03-02T13:17:39.968Z,9.1
2023-03-02T13:22:39.986Z,9.4
2023-03-02T13:27:39.940Z,9.1
2023-03-02T13:32:40.027Z,9.5
2023-03-02T13:37:40.540Z,9.4
2023-03-02T13:42:39.943Z,9.2
2023-03-02T13:47:39.948Z,9.2
2023-03-02T13:52:39.895Z,9.1
2023-03-02T13:57:39.895Z,9.2
2023-03-02T14:02:39.879Z,9.4
2023-03-02T14:07:39.843Z,9.4
2023-03-02T14:12:41.851Z,9.2
2023-03-02T14:17:39.878Z,9.6
2023-03-02T14:22:40.010Z,9.4
2023-03-02T14:27:39.898Z,9.6
2023-03-02T14:32:39.886Z,9.6
2023-03-02T14:37:39.858Z,9.7
2023-03-02T14:42:39.878Z,9.7
2023-03-02T14:47:41.827Z,9.4
2023-03-02T14:52:39.839Z,9.2
2023-03-02T14:57:39.826Z,9.4
2023-03-02T15:02:40.049Z,9.6
2023-03-02T15:07:39.834Z,9.7
2023-03-02T15:12:39.829Z,9.6
2023-03-02T15:17:39.833Z,9.6
2023-03-02T15:22:39.932Z,9.6
2023-03-02T15:27:41.873Z,9.5
2023-03-02T15:32:39.945Z,9.5
2023-03-02T15:37:39.841Z,9.6
2023-03-02T15:42:42.389Z,9.7
2023-03-02T15:47:39.860Z,9.6
2023-03-02T15:52:39.908Z,9.7
2023-03-02T15:57:39.876Z,9.4
2023-03-02T16:02:39.943Z,9.4
2023-03-02T16:07:39.888Z,9.4
2023-03-02T16:12:39.909Z,9.4
2023-03-02T16:17:39.929Z,9.2
2023-03-02T16:22:39.892Z,9.3
2023-03-02T16:27:40.079Z,9.2
2023-03-02T16:32:39.869Z,9.2
2023-03-02T16:37:41.968Z,8.9
2023-03-02T16:42:39.840Z,8.9
2023-03-02T16:47:39.802Z,8.9
2023-03-02T16:52:39.879Z,8.7
2023-03-02T16:57:39.819Z,8.6
2023-03-02T17:02:39.847Z,8.4
2023-03-02T17:07:42.335Z,8.4
2023-03-02T17:12:39.818Z,8.3
2023-03-02T17:17:39.815Z,8.2
2023-03-02T17:22:43.814Z,8.2
2023-03-02T17:27:39.771Z,8.2
2023-03-02T17:32:39.802Z,8.0
2023-03-02T17:37:39.800Z,7.9
2023-03-02T17:42:39.767Z,7.8
2023-03-02T17:47:39.733Z,7.7
2023-03-02T17:52:41.764Z,7.6
2023-03-02T17:57:39.665Z,7.6
2023-03-02T18:02:39.708Z,7.4
2023-03-02T18:07:39.570Z,7.3
2023-03-02T18:12:39.518Z,7.2
2023-03-02T18:22:39.413Z,7.0
2023-03-02T18:27:39.521Z,6.9
2023-03-02T18:32:39.349Z,6.8
2023-03-02T18:37:41.320Z,6.6
2023-03-02T18:42:39.253Z,6.5
2023-03-02T18:47:39.154Z,6.4
2023-03-02T18:52:39.138Z,6.4
2023-03-02T19:02:39.003Z,6.2
2023-03-02T19:07:38.945Z,6.1
2023-03-02T19:12:40.810Z,5.9
2023-03-02T19:17:38.701Z,5.8
2023-03-02T19:22:38.615Z,5.7
2023-03-02T19:27:38.564Z,5.6
2023-03-02T19:32:38.443Z,5.6
2023-03-02T19:37:38.303Z,5.5
2023-03-02T19:42:38.266Z,5.5
2023-03-02T19:47:38.168Z,5.4
2023-03-02T19:52:38.048Z,5.4
2023-03-02T19:57:37.935Z,5.4
2023-03-02T20:07:40.342Z,5.2
2023-03-02T20:12:40.076Z,5.2
2023-03-02T20:17:37.408Z,5.2
2023-03-02T20:22:37.294Z,5.2
2023-03-02T20:27:37.167Z,5.1
2023-03-02T20:32:37.008Z,5.1
2023-03-02T20:37:36.878Z,5.0
2023-03-02T20:42:36.756Z,4.9
2023-03-02T20:47:36.619Z,4.8
2023-03-02T20:52:36.452Z,4.8
2023-03-02T20:57:36.367Z,4.8
2023-03-02T21:02:36.223Z,4.7
2023-03-02T21:07:36.013Z,4.6
2023-03-02T21:12:35.995Z,4.6
2023-03-02T21:17:35.700Z,4.6
2023-03-02T21:22:35.566Z,4.3
2023-03-02T21:27:35.363Z,4.4
2023-03-02T21:32:35.190Z,4.2
2023-03-02T21:37:35.083Z,4.3
2023-03-02T21:42:34.893Z,4.2
2023-03-02T21:47:36.720Z,4.2
2023-03-02T21:52:34.608Z,4.2
2023-03-02T21:57:34.387Z,4.1
2023-03-02T22:02:34.136Z,4.0
2023-03-02T22:07:33.955Z,3.9
2023-03-02T22:12:33.744Z,3.9
2023-03-02T22:17:33.571Z,3.9
2023-03-02T22:22:33.385Z,3.7
2023-03-02T22:27:33.110Z,3.7
2023-03-02T22:32:33.012Z,3.5
2023-03-02T22:37:32.762Z,3.4
2023-03-02T22:42:32.545Z,3.4
2023-03-02T22:47:32.322Z,3.4
2023-03-02T22:57:32.024Z,3.1
2023-03-02T23:02:33.754Z,3.2
2023-03-02T23:07:31.522Z,3.1
2023-03-02T23:12:31.360Z,3.1
2023-03-02T23:21:00.190Z,2.9
2023-03-02T23:22:30.904Z,2.9
2023-03-02T23:27:30.682Z,2.9
2023-03-02T23:32:30.496Z,2.9
2023-03-02T23:37:30.185Z,2.9
2023-03-02T23:42:29.862Z,2.7
2023-03-02T23:47:29.676Z,2.8
2023-03-02T23:52:31.390Z,2.7
2023-03-02T23:57:29.165Z,2.7
